Main page
METAR-TAF:

METAR-TAF

Airports :

De Kooy Airfield

Den Helder, Netherlands

latitude: 52-55N, longitude: 004-47E, elevation: 0 m

Current weather observation

The report was made 15 minutes ago, at 09:25 UTC
Wind 10 kt from the North, varying between Northwest and Northeast
Temperature 13°C
Humidity 88%
Pressure 1007 hPa
Visibility: 5000 m
mist

METAR: EHKD 190925Z AUTO 01010KT 320V050 5000 BR OVC006/// 13/11 Q1007 YLO

Time: 11:40 (09:40 UTC)

Forecast

The report was made 44 minutes ago, at 08:56 UTC
Forecast valid from 19 at 09 UTC to 19 at 21 UTC
Wind 10 kt from the North
Visibility: 7000 m
Scattered clouds at a height of 700 ft
Broken clouds at a height of 7000 ft
Becoming
from 19 at 11 UTC to 19 at 13 UTC
Scattered clouds at a height of 1200 ft
Becoming
from 19 at 15 UTC to 19 at 17 UTC
Visibility: 2000 m
Scattered clouds at a height of 200 ft
Broken clouds at a height of 300 ft
mist

TAF: EHKD 190856Z 1909/1921 01010KT 7000 SCT007 BKN070 BECMG 1911/1913 SCT012 BECMG 1915/1917 2000 BR SCT002 BKN003

Weather observations and forecasts of more than 4000 airports (METAR and TAF reports).

The available stations are represented by yellow and red dots on the map.

Hover mouse over dot to see the name of the station.

Then click to see weather observations and forecasts.

To change the map : click on the green buttons with a black cross to zoom in, on the green button with a dash to zoom out, or on the green arrows for adjacent maps.


METAR-TAF: